Time;durP1;ratioP1;P1;durP2;ratioP2;P2;SDS_P1;SDS_P2;PMS_P1;PMS_P2;Temp;Humidity;BMP_temperature;BMP_pressure;BME280_temperature;BME280_humidity;BME280_pressure;Samples;Min_cycle;Max_cycle;Signal;HPM_P1;HPM_P2
2022/08/28 00:00:34;;;;;;;0.73;0.40;;;19.60;99.90;;;;;;5093223;28;20285;-81
2022/08/28 00:03:00;;;;;;;0.57;0.50;;;19.50;99.90;;;;;;5079311;28;20210;-81
2022/08/28 00:05:28;;;;;;;0.40;0.40;;;19.50;99.90;;;;;;5073462;28;20204;-82
2022/08/28 00:07:55;;;;;;;0.30;0.30;;;19.50;99.90;;;;;;5087354;28;20206;-82
2022/08/28 00:10:22;;;;;;;0.50;0.50;;;19.60;99.90;;;;;;5074379;28;20327;-81
2022/08/28 00:12:50;;;;;;;0.20;0.20;;;19.60;99.90;;;;;;5084185;28;20652;-81
2022/08/28 00:15:20;;;;;;;0.40;0.40;;;19.60;99.90;;;;;;5075556;28;20239;-82
2022/08/28 00:17:48;;;;;;;0.50;0.50;;;19.60;99.90;;;;;;5095287;28;20192;-81
2022/08/28 00:20:16;;;;;;;0.60;0.60;;;19.60;99.90;;;;;;5076198;28;20584;-81
2022/08/28 00:22:42;;;;;;;0.60;0.60;;;19.60;99.90;;;;;;5082243;28;20263;-81
2022/08/28 00:25:10;;;;;;;0.50;0.50;;;19.50;99.90;;;;;;5072363;28;20212;-81
2022/08/28 00:27:51;;;;;;;0.33;0.33;;;19.50;99.90;;;;;;5096310;28;20184;-81
2022/08/28 00:30:38;;;;;;;0.97;0.50;;;19.50;99.90;;;;;;5087444;28;20239;-81
2022/08/28 00:33:14;;;;;;;0.30;0.30;;;19.60;99.90;;;;;;5078517;28;20205;-81
2022/08/28 00:35:41;;;;;;;0.20;0.20;;;19.60;99.90;;;;;;5087119;28;20199;-82
2022/08/28 00:38:10;;;;;;;0.40;0.40;;;19.60;99.90;;;;;;5097048;28;20248;-81
2022/08/28 00:40:37;;;;;;;0.60;0.60;;;19.60;99.90;;;;;;5078217;28;20180;-81
2022/08/28 00:43:04;;;;;;;1.33;0.57;;;19.60;99.90;;;;;;5073371;28;20288;-81
2022/08/28 00:45:31;;;;;;;0.30;0.30;;;19.60;99.90;;;;;;5084455;28;20214;-81
2022/08/28 00:47:57;;;;;;;0.97;0.63;;;19.60;99.90;;;;;;5082751;28;20231;-81
2022/08/28 00:50:26;;;;;;;0.27;0.27;;;19.60;99.90;;;;;;5084763;28;20201;-81
2022/08/28 00:52:56;;;;;;;0.40;0.40;;;19.60;99.90;;;;;;5095844;28;20192;-81
2022/08/28 00:55:25;;;;;;;0.40;0.40;;;19.60;99.90;;;;;;5098496;28;20699;-81
2022/08/28 00:57:57;;;;;;;0.33;0.33;;;19.50;99.90;;;;;;5083950;28;20292;-81
2022/08/28 01:00:31;;;;;;;1.20;0.83;;;19.60;99.90;;;;;;5087110;28;20185;-81
2022/08/28 01:02:57;;;;;;;0.23;0.23;;;19.70;99.90;;;;;;5084449;28;20200;-81
2022/08/28 01:05:23;;;;;;;0.57;0.57;;;19.70;99.90;;;;;;5087156;28;20194;-82
2022/08/28 01:07:49;;;;;;;0.30;0.30;;;19.60;99.90;;;;;;5095288;28;20264;-81
2022/08/28 01:10:19;;;;;;;0.23;0.23;;;19.70;99.90;;;;;;5081436;28;20298;-81
2022/08/28 01:12:45;;;;;;;0.37;0.37;;;19.80;99.90;;;;;;5091852;28;20202;-81
2022/08/28 01:15:15;;;;;;;1.60;0.63;;;19.90;99.90;;;;;;5085969;28;20231;-81
2022/08/28 01:17:45;;;;;;;0.47;0.40;;;19.90;99.90;;;;;;5095332;28;20348;-82
2022/08/28 01:20:17;;;;;;;0.50;0.50;;;20.00;99.90;;;;;;5084173;28;20251;-81
2022/08/28 01:22:53;;;;;;;0.40;0.40;;;19.80;99.90;;;;;;5085034;28;20687;-81
2022/08/28 01:25:21;;;;;;;0.73;0.73;;;19.70;99.90;;;;;;5092761;28;20673;-81
2022/08/28 01:27:46;;;;;;;0.50;0.40;;;19.70;99.90;;;;;;5090212;28;20203;-81
2022/08/28 01:30:17;;;;;;;0.33;0.33;;;19.70;99.90;;;;;;5094091;28;20192;-81
2022/08/28 01:32:50;;;;;;;0.40;0.40;;;19.80;99.90;;;;;;5083578;28;20208;-82
2022/08/28 01:35:20;;;;;;;1.23;0.33;;;20.00;99.90;;;;;;5082817;28;20265;-82
2022/08/28 01:37:46;;;;;;;0.63;0.40;;;20.20;99.90;;;;;;5095044;28;20669;-81
2022/08/28 01:40:16;;;;;;;0.30;0.30;;;20.20;99.90;;;;;;5092688;28;20217;-81
2022/08/28 01:42:43;;;;;;;0.30;0.30;;;20.20;99.90;;;;;;5087934;28;20177;-81
2022/08/28 01:45:12;;;;;;;0.40;0.40;;;20.40;99.90;;;;;;5091172;28;20295;-82
2022/08/28 01:47:39;;;;;;;0.57;0.57;;;20.40;99.90;;;;;;5083826;28;20527;-80
2022/08/28 01:50:07;;;;;;;0.60;0.60;;;20.40;99.90;;;;;;5085941;28;20246;-81
2022/08/28 01:52:33;;;;;;;1.60;0.50;;;20.50;99.90;;;;;;5089899;28;20661;-82
2022/08/28 01:54:58;;;;;;;0.40;0.40;;;20.40;99.90;;;;;;5079086;28;20184;-81
2022/08/28 01:57:24;;;;;;;0.67;0.50;;;20.50;99.90;;;;;;5086561;28;21936;-81
2022/08/28 01:59:51;;;;;;;0.40;0.40;;;20.50;99.90;;;;;;5089519;28;20718;-81
2022/08/28 02:02:16;;;;;;;0.30;0.30;;;20.40;99.90;;;;;;5088480;28;20669;-82
2022/08/28 02:04:42;;;;;;;0.67;0.50;;;20.40;99.90;;;;;;5087458;28;20315;-82
2022/08/28 02:07:08;;;;;;;0.50;0.50;;;20.40;99.90;;;;;;5092366;28;20184;-82
2022/08/28 02:09:34;;;;;;;0.47;0.47;;;20.30;99.90;;;;;;5084569;28;20715;-82
2022/08/28 02:12:00;;;;;;;0.70;0.70;;;20.30;99.90;;;;;;5084346;28;20208;-82
2022/08/28 02:14:25;;;;;;;0.50;0.50;;;20.00;99.90;;;;;;5086252;28;20219;-81
2022/08/28 02:16:51;;;;;;;3.40;1.43;;;19.80;99.90;;;;;;5092822;28;20200;-82
2022/08/28 02:19:17;;;;;;;1.40;0.73;;;19.70;99.90;;;;;;5085263;28;20223;-81
2022/08/28 02:21:43;;;;;;;0.90;0.90;;;19.50;99.90;;;;;;5092820;28;20184;-82
2022/08/28 02:24:08;;;;;;;0.60;0.60;;;19.40;99.90;;;;;;5103100;28;20188;-81
2022/08/28 02:26:34;;;;;;;0.33;0.30;;;19.40;99.90;;;;;;5084576;28;20233;-82
2022/08/28 02:29:00;;;;;;;1.13;0.40;;;19.40;99.90;;;;;;5093365;28;20302;-81
2022/08/28 02:31:26;;;;;;;0.40;0.40;;;19.40;99.90;;;;;;5093966;28;20247;-81
2022/08/28 02:33:52;;;;;;;0.50;0.50;;;19.40;99.90;;;;;;5099534;28;20183;-81
2022/08/28 02:36:18;;;;;;;4.07;0.53;;;19.30;99.90;;;;;;5090921;28;20257;-81
2022/08/28 02:38:46;;;;;;;1.07;0.50;;;19.30;99.90;;;;;;5095679;28;20196;-81
2022/08/28 02:41:11;;;;;;;0.53;0.40;;;19.30;99.90;;;;;;5077517;28;20584;-82
2022/08/28 02:43:38;;;;;;;0.37;0.37;;;19.40;99.90;;;;;;5097160;28;20190;-81
2022/08/28 02:46:04;;;;;;;0.60;0.60;;;19.30;99.90;;;;;;5085966;28;20642;-81
2022/08/28 02:48:33;;;;;;;1.57;0.57;;;19.30;99.90;;;;;;5103341;28;20221;-81
2022/08/28 02:51:01;;;;;;;0.63;0.53;;;19.20;99.90;;;;;;5099064;28;20192;-82
2022/08/28 02:53:27;;;;;;;0.40;0.40;;;19.20;99.90;;;;;;5082392;28;20257;-81
2022/08/28 02:55:53;;;;;;;0.30;0.30;;;19.20;99.90;;;;;;5081684;28;20207;-81
2022/08/28 02:58:19;;;;;;;0.20;0.20;;;19.20;99.90;;;;;;5098262;28;20682;-81
2022/08/28 03:00:45;;;;;;;0.90;0.53;;;19.10;99.90;;;;;;5088656;28;20194;-80
2022/08/28 03:03:10;;;;;;;1.27;0.70;;;19.20;99.90;;;;;;5078299;28;20625;-81
2022/08/28 03:05:36;;;;;;;1.13;0.83;;;19.20;99.90;;;;;;5081387;28;20230;-82
2022/08/28 03:08:01;;;;;;;0.50;0.50;;;19.10;99.90;;;;;;5083940;28;20215;-82
2022/08/28 03:10:27;;;;;;;0.50;0.50;;;19.10;99.90;;;;;;5088256;28;20189;-82
2022/08/28 03:12:53;;;;;;;0.37;0.20;;;19.20;99.90;;;;;;5081810;28;20189;-81
2022/08/28 03:15:19;;;;;;;1.50;0.50;;;19.20;99.90;;;;;;5078809;28;20654;-81
2022/08/28 03:17:44;;;;;;;2.00;0.90;;;19.10;99.90;;;;;;5100602;28;20271;-81
2022/08/28 03:20:11;;;;;;;0.30;0.30;;;19.00;99.90;;;;;;5084134;28;20682;-81
2022/08/28 03:25:23;;;;;;;0.67;0.67;;;19.00;99.90;;;;;;5080066;28;20234;-81
2022/08/28 03:27:49;;;;;;;0.47;0.47;;;19.00;99.90;;;;;;5100589;28;20205;-81
2022/08/28 03:30:16;;;;;;;0.53;0.53;;;18.90;99.90;;;;;;5081473;28;20198;-81
2022/08/28 03:32:41;;;;;;;0.20;0.20;;;18.90;99.90;;;;;;5093408;28;20299;-81
2022/08/28 03:35:08;;;;;;;0.33;0.20;;;18.90;99.90;;;;;;5086079;28;20304;-80
2022/08/28 03:37:33;;;;;;;0.47;0.47;;;19.00;99.90;;;;;;5082998;28;20192;-81
2022/08/28 03:39:59;;;;;;;0.30;0.30;;;18.90;99.90;;;;;;5081331;28;20237;-81
2022/08/28 03:42:24;;;;;;;1.57;1.00;;;18.90;99.90;;;;;;5076064;28;20193;-80
2022/08/28 03:44:50;;;;;;;0.40;0.30;;;18.90;99.90;;;;;;5085071;28;20675;-81
2022/08/28 03:47:15;;;;;;;0.23;0.23;;;18.90;99.90;;;;;;5083627;28;20188;-81
2022/08/28 03:49:41;;;;;;;0.23;0.23;;;18.80;99.90;;;;;;5098242;28;20215;-81
2022/08/28 03:52:07;;;;;;;0.20;0.20;;;18.90;99.90;;;;;;5085191;28;20189;-81
2022/08/28 03:54:32;;;;;;;0.27;0.27;;;18.90;99.90;;;;;;5082326;28;20199;-81
2022/08/28 03:56:59;;;;;;;0.57;0.57;;;18.90;99.90;;;;;;5092450;28;20223;-81
2022/08/28 03:59:24;;;;;;;0.50;0.43;;;18.90;99.90;;;;;;5091272;28;20205;-81
2022/08/28 04:01:50;;;;;;;0.30;0.30;;;18.90;99.90;;;;;;5089879;28;20255;-80
2022/08/28 04:04:16;;;;;;;0.77;0.70;;;18.90;99.90;;;;;;5086754;28;20235;-81
2022/08/28 04:06:42;;;;;;;2.97;0.80;;;18.80;99.90;;;;;;5080037;28;20191;-80
2022/08/28 04:09:07;;;;;;;0.57;0.57;;;18.70;99.90;;;;;;5079319;28;20566;-81
2022/08/28 04:11:37;;;;;;;0.30;0.30;;;18.70;99.90;;;;;;5092821;28;20255;-81
2022/08/28 04:14:03;;;;;;;0.63;0.63;;;18.70;99.90;;;;;;5084048;28;20196;-81
2022/08/28 04:16:29;;;;;;;0.40;0.40;;;18.70;99.90;;;;;;5092449;28;20226;-81
2022/08/28 04:18:54;;;;;;;1.80;1.67;;;18.70;99.90;;;;;;5084230;28;20744;-81
2022/08/28 04:21:22;;;;;;;0.60;0.60;;;18.70;99.90;;;;;;5085403;28;20213;-81
2022/08/28 04:23:49;;;;;;;4.30;0.50;;;18.60;99.90;;;;;;5090644;28;20241;-81
2022/08/28 04:26:18;;;;;;;0.30;0.30;;;18.50;99.90;;;;;;5095846;28;20214;-80
2022/08/28 04:28:44;;;;;;;0.40;0.40;;;18.50;99.90;;;;;;5091829;28;20572;-80
2022/08/28 04:31:10;;;;;;;0.83;0.43;;;18.50;99.90;;;;;;5084515;28;21921;-81
2022/08/28 04:33:37;;;;;;;0.30;0.30;;;18.50;99.90;;;;;;5086043;28;20810;-81
2022/08/28 04:36:10;;;;;;;0.40;0.40;;;18.50;99.90;;;;;;5083167;28;20211;-81
2022/08/28 04:38:36;;;;;;;0.40;0.40;;;18.40;99.90;;;;;;5090387;28;20284;-80
2022/08/28 04:41:04;;;;;;;0.63;0.60;;;18.40;99.90;;;;;;5080607;28;20192;-81
2022/08/28 04:43:30;;;;;;;0.20;0.20;;;18.40;99.90;;;;;;5081527;28;20699;-80
2022/08/28 04:45:55;;;;;;;0.30;0.30;;;18.40;99.90;;;;;;5079043;28;20184;-80
2022/08/28 04:48:21;;;;;;;2.63;0.40;;;18.40;99.90;;;;;;5087730;28;20216;-81
2022/08/28 04:50:47;;;;;;;1.70;0.53;;;18.40;99.90;;;;;;5095699;28;20278;-81
2022/08/28 04:53:16;;;;;;;1.20;0.43;;;18.40;99.90;;;;;;5083717;28;20184;-81
2022/08/28 04:55:47;;;;;;;0.50;0.50;;;18.40;99.90;;;;;;5094462;28;20230;-80
2022/08/28 04:58:14;;;;;;;0.37;0.37;;;18.40;99.90;;;;;;5080861;28;20207;-81
2022/08/28 05:00:44;;;;;;;0.40;0.40;;;18.40;99.90;;;;;;5096614;28;20179;-81
2022/08/28 05:03:10;;;;;;;0.20;0.20;;;18.40;99.90;;;;;;5096748;28;20176;-81
2022/08/28 05:05:44;;;;;;;0.57;0.43;;;18.40;99.90;;;;;;5087801;28;20179;-81
2022/08/28 05:08:11;;;;;;;0.60;0.60;;;18.30;99.90;;;;;;5081640;28;20277;-81
2022/08/28 05:10:38;;;;;;;0.47;0.47;;;18.30;99.90;;;;;;5092136;28;20176;-81
2022/08/28 05:13:04;;;;;;;2.33;0.80;;;18.30;99.90;;;;;;5088727;28;20179;-81
2022/08/28 05:15:29;;;;;;;0.33;0.33;;;18.30;99.90;;;;;;5089536;28;20205;-81
2022/08/28 05:17:55;;;;;;;0.40;0.40;;;18.30;99.90;;;;;;5090440;28;20571;-82
2022/08/28 05:20:20;;;;;;;0.30;0.30;;;18.30;99.90;;;;;;5094064;28;20188;-82
2022/08/28 05:22:46;;;;;;;0.50;0.50;;;18.40;99.90;;;;;;5091231;28;20264;-80
2022/08/28 05:25:13;;;;;;;0.60;0.60;;;18.50;99.90;;;;;;5080183;28;20252;-81
2022/08/28 05:27:40;;;;;;;0.73;0.60;;;18.50;99.90;;;;;;5087615;28;20191;-81
2022/08/28 05:30:06;;;;;;;2.17;1.13;;;18.50;99.90;;;;;;5099590;28;20198;-81
2022/08/28 05:32:32;;;;;;;0.60;0.60;;;18.60;99.90;;;;;;5108379;28;20187;-81
2022/08/28 05:34:57;;;;;;;1.20;0.50;;;18.70;99.90;;;;;;5091823;28;20191;-81
2022/08/28 05:37:23;;;;;;;0.80;0.80;;;18.70;99.90;;;;;;5081855;28;20182;-81
2022/08/28 05:39:48;;;;;;;0.40;0.40;;;18.70;99.90;;;;;;5093471;28;20227;-81
2022/08/28 05:42:14;;;;;;;0.37;0.37;;;18.90;99.90;;;;;;5075481;28;20173;-81
2022/08/28 05:44:39;;;;;;;0.70;0.70;;;18.90;99.90;;;;;;5092036;28;20200;-81
2022/08/28 05:47:05;;;;;;;0.37;0.37;;;18.90;99.90;;;;;;5082371;28;20278;-81
2022/08/28 05:49:31;;;;;;;0.47;0.47;;;18.90;99.90;;;;;;5081651;28;20212;-80
2022/08/28 05:51:56;;;;;;;0.50;0.50;;;18.90;99.90;;;;;;5088435;28;20201;-80
2022/08/28 05:54:22;;;;;;;0.30;0.30;;;19.10;99.90;;;;;;5083379;28;20177;-81
2022/08/28 05:56:47;;;;;;;0.40;0.40;;;19.10;99.90;;;;;;5089533;28;20232;-80
2022/08/28 05:59:14;;;;;;;0.53;0.33;;;19.10;99.90;;;;;;5084662;28;20564;-80
2022/08/28 06:01:43;;;;;;;0.43;0.40;;;19.10;99.90;;;;;;5085466;28;20183;-80
2022/08/28 06:04:13;;;;;;;0.20;0.20;;;19.20;99.90;;;;;;5098320;28;20175;-80
2022/08/28 06:06:40;;;;;;;0.77;0.77;;;19.10;99.90;;;;;;5087224;28;20204;-80
2022/08/28 06:09:10;;;;;;;0.40;0.40;;;19.20;99.90;;;;;;5091779;28;20331;-80
2022/08/28 06:11:37;;;;;;;0.50;0.50;;;19.20;99.90;;;;;;5087235;28;20232;-81
2022/08/28 06:14:09;;;;;;;0.60;0.50;;;19.20;99.90;;;;;;5076695;28;20193;-80
2022/08/28 06:16:38;;;;;;;0.60;0.60;;;19.10;99.90;;;;;;5096767;28;20216;-81
2022/08/28 06:19:04;;;;;;;7.67;0.70;;;19.20;99.90;;;;;;5088695;28;20204;-80
2022/08/28 06:21:30;;;;;;;0.33;0.33;;;19.20;99.90;;;;;;5096303;28;20634;-81
2022/08/28 06:23:56;;;;;;;0.20;0.20;;;19.20;99.90;;;;;;5090480;28;20186;-80
2022/08/28 06:26:22;;;;;;;0.27;0.27;;;19.40;99.90;;;;;;5090497;28;20240;-81
2022/08/28 06:28:47;;;;;;;1.30;0.67;;;19.40;99.90;;;;;;5095962;28;20628;-81
2022/08/28 06:31:13;;;;;;;0.73;0.73;;;19.30;99.90;;;;;;5096605;28;20189;-80
2022/08/28 06:33:39;;;;;;;0.30;0.30;;;19.20;99.90;;;;;;5099289;28;20195;-80
2022/08/28 06:36:06;;;;;;;0.20;0.20;;;19.40;99.90;;;;;;5082747;28;20599;-80
2022/08/28 06:38:31;;;;;;;0.43;0.40;;;19.40;99.90;;;;;;5081412;28;20208;-80
2022/08/28 06:40:57;;;;;;;1.03;1.00;;;19.50;99.90;;;;;;5078941;28;20195;-81
2022/08/28 06:43:26;;;;;;;0.33;0.33;;;19.70;99.90;;;;;;5093633;28;20220;-80
2022/08/28 06:45:55;;;;;;;1.07;0.60;;;19.70;99.90;;;;;;5089956;28;20186;-80
2022/08/28 06:48:26;;;;;;;3.20;1.50;;;19.60;99.90;;;;;;5095723;28;20590;-81
2022/08/28 06:50:52;;;;;;;0.40;0.40;;;19.70;99.90;;;;;;5085673;28;20585;-81
2022/08/28 06:53:20;;;;;;;0.40;0.40;;;19.90;99.90;;;;;;5091172;28;20192;-82
2022/08/28 06:56:07;;;;;;;0.57;0.47;;;19.80;99.90;;;;;;5089936;28;20215;-80
2022/08/28 06:58:34;;;;;;;0.30;0.30;;;19.80;99.90;;;;;;5098720;28;20212;-80
2022/08/28 07:01:09;;;;;;;2.90;0.37;;;19.60;99.90;;;;;;5095068;28;20173;-80
2022/08/28 07:03:35;;;;;;;0.37;0.37;;;19.80;99.90;;;;;;5090909;28;20187;-80
2022/08/28 07:06:02;;;;;;;0.50;0.50;;;19.80;99.90;;;;;;5082364;28;20198;-81
2022/08/28 07:08:28;;;;;;;0.40;0.40;;;19.90;99.90;;;;;;5085847;28;20903;-80
2022/08/28 07:10:55;;;;;;;0.60;0.60;;;20.10;99.90;;;;;;5088997;28;20180;-81
2022/08/28 07:13:21;;;;;;;0.40;0.40;;;20.00;99.90;;;;;;5084585;28;20230;-80
2022/08/28 07:15:48;;;;;;;0.53;0.53;;;20.30;99.90;;;;;;5085480;28;20219;-81
2022/08/28 07:18:14;;;;;;;0.93;0.30;;;20.70;99.90;;;;;;5081858;28;20720;-80
2022/08/28 07:20:40;;;;;;;0.30;0.30;;;21.20;99.90;;;;;;5083474;28;20268;-80
2022/08/28 07:23:06;;;;;;;0.30;0.30;;;21.40;99.90;;;;;;5081688;28;20268;-80
2022/08/28 07:25:31;;;;;;;1.23;0.63;;;21.30;99.90;;;;;;5086060;28;20181;-81
2022/08/28 07:27:58;;;;;;;1.87;0.60;;;21.30;99.90;;;;;;5087697;28;20275;-80
2022/08/28 07:30:23;;;;;;;0.40;0.40;;;20.90;99.90;;;;;;5086972;28;20200;-80
2022/08/28 07:32:49;;;;;;;0.40;0.40;;;20.80;99.90;;;;;;5090785;28;20239;-81
2022/08/28 07:35:17;;;;;;;0.57;0.57;;;21.10;99.90;;;;;;5082522;28;20216;-81
2022/08/28 07:37:44;;;;;;;0.33;0.33;;;21.40;99.90;;;;;;5076964;28;20235;-81
2022/08/28 07:40:11;;;;;;;0.30;0.30;;;21.20;99.90;;;;;;5082472;28;20266;-81
2022/08/28 07:45:21;;;;;;;0.60;0.60;;;21.40;99.90;;;;;;5081811;28;20218;-81
2022/08/28 07:47:46;;;;;;;3.17;0.80;;;21.60;99.90;;;;;;5090483;28;20205;-81
2022/08/28 07:50:12;;;;;;;0.50;0.50;;;21.60;99.90;;;;;;5096875;28;20670;-81
2022/08/28 07:52:38;;;;;;;0.53;0.53;;;21.80;99.90;;;;;;5078993;28;20187;-81
2022/08/28 07:55:05;;;;;;;0.60;0.30;;;21.90;99.90;;;;;;5076436;28;20185;-83
2022/08/28 07:57:30;;;;;;;0.50;0.50;;;21.80;99.90;;;;;;5091897;28;20184;-81
2022/08/28 07:59:58;;;;;;;4.43;2.30;;;21.90;99.90;;;;;;5078574;28;20193;-81
2022/08/28 08:02:24;;;;;;;0.30;0.30;;;21.80;99.90;;;;;;5089768;28;20681;-82
2022/08/28 08:04:49;;;;;;;0.73;0.43;;;22.20;99.90;;;;;;5082717;28;20200;-81
2022/08/28 08:07:16;;;;;;;0.30;0.30;;;22.30;99.90;;;;;;5084200;28;20189;-81
2022/08/28 08:09:43;;;;;;;0.30;0.30;;;22.60;99.90;;;;;;5085388;28;20796;-81
2022/08/28 08:12:11;;;;;;;1.27;0.87;;;22.70;99.90;;;;;;5079997;28;20637;-81
2022/08/28 08:14:37;;;;;;;0.40;0.40;;;22.70;99.90;;;;;;5085299;28;20187;-81
2022/08/28 08:17:04;;;;;;;0.50;0.40;;;22.40;99.90;;;;;;5084007;28;20238;-81
2022/08/28 08:19:30;;;;;;;0.33;0.33;;;22.60;99.90;;;;;;5089237;28;20215;-80
2022/08/28 08:21:56;;;;;;;0.50;0.50;;;22.60;99.90;;;;;;5088005;28;20551;-81
2022/08/28 08:24:24;;;;;;;0.63;0.63;;;22.70;99.90;;;;;;5085671;28;20271;-81
2022/08/28 08:26:52;;;;;;;0.40;0.40;;;22.70;99.90;;;;;;5088996;28;20283;-80
2022/08/28 08:29:18;;;;;;;1.60;0.30;;;22.50;99.90;;;;;;5103921;27;20208;-81
2022/08/28 08:31:44;;;;;;;0.33;0.30;;;22.60;99.90;;;;;;5089202;28;20195;-81
2022/08/28 08:34:10;;;;;;;0.20;0.20;;;22.40;99.90;;;;;;5084954;28;20189;-81
2022/08/28 08:36:36;;;;;;;0.27;0.27;;;22.20;99.90;;;;;;5086995;28;20210;-80
2022/08/28 08:39:05;;;;;;;0.50;0.50;;;22.40;99.90;;;;;;5085147;28;20837;-81
2022/08/28 08:41:47;;;;;;;1.93;0.57;;;22.40;99.90;;;;;;5089634;28;20888;-80
2022/08/28 08:44:27;;;;;;;0.53;0.47;;;22.40;99.90;;;;;;5085745;28;20189;-81
2022/08/28 08:47:15;;;;;;;0.30;0.30;;;23.00;99.90;;;;;;5087515;28;20187;-81
2022/08/28 08:49:49;;;;;;;0.83;0.40;;;23.00;99.90;;;;;;5083657;28;21190;-80
2022/08/28 08:52:27;;;;;;;0.13;0.13;;;23.20;99.90;;;;;;5084722;28;20645;-80
2022/08/28 08:55:30;;;;;;;0.30;0.30;;;23.30;99.90;;;;;;5087329;28;20199;-80
2022/08/28 08:58:10;;;;;;;0.50;0.50;;;23.30;99.90;;;;;;5083976;28;20214;-80
2022/08/28 09:00:51;;;;;;;1.20;0.53;;;23.00;99.90;;;;;;5086854;28;20179;-81
2022/08/28 09:03:24;;;;;;;0.30;0.30;;;23.00;99.90;;;;;;5083710;28;20180;-81
2022/08/28 09:06:04;;;;;;;0.30;0.30;;;23.10;99.90;;;;;;5085317;28;20177;-82
2022/08/28 09:08:41;;;;;;;0.30;0.30;;;23.50;99.90;;;;;;5087938;28;20239;-81
2022/08/28 09:11:40;;;;;;;0.40;0.40;;;23.90;99.90;;;;;;5088001;28;20172;-81
2022/08/28 09:14:26;;;;;;;0.40;0.40;;;23.90;99.90;;;;;;5046103;28;20615;-81
2022/08/28 09:16:52;;;;;;;0.30;0.30;;;23.90;99.90;;;;;;5087953;28;20207;-81
2022/08/28 09:19:20;;;;;;;0.60;0.60;;;24.30;99.90;;;;;;5091363;28;20208;-81
2022/08/28 09:21:47;;;;;;;0.30;0.30;;;24.60;99.90;;;;;;5089754;28;20179;-82
2022/08/28 09:24:20;;;;;;;0.60;0.60;;;23.90;99.90;;;;;;5088575;28;20176;-81
2022/08/28 09:26:55;;;;;;;1.10;1.10;;;23.90;99.90;;;;;;5088375;28;20180;-81
2022/08/28 09:29:33;;;;;;;0.20;0.20;;;24.90;99.90;;;;;;5089613;28;20225;-81
2022/08/28 09:32:16;;;;;;;0.43;0.43;;;24.90;99.90;;;;;;5090174;28;20172;-81
2022/08/28 09:35:01;;;;;;;0.40;0.40;;;24.20;99.90;;;;;;5090073;28;20209;-81
2022/08/28 09:37:30;;;;;;;1.10;0.80;;;23.20;99.90;;;;;;5092171;28;20586;-81
2022/08/28 09:40:18;;;;;;;0.67;0.67;;;23.20;99.90;;;;;;5093230;28;20183;-81
2022/08/28 09:43:25;;;;;;;0.30;0.30;;;23.70;99.90;;;;;;5090238;28;20217;-81
2022/08/28 09:46:15;;;;;;;0.73;0.73;;;23.90;99.90;;;;;;5092208;28;20200;-81
2022/08/28 09:48:43;;;;;;;0.43;0.20;;;24.50;99.90;;;;;;5093380;28;20208;-81
2022/08/28 09:51:12;;;;;;;0.53;0.53;;;24.60;99.90;;;;;;5093941;28;20180;-81
2022/08/28 09:53:53;;;;;;;0.40;0.30;;;24.10;99.90;;;;;;5093868;28;20172;-81
2022/08/28 09:56:32;;;;;;;0.60;0.40;;;24.40;99.90;;;;;;5092220;28;20212;-81
2022/08/28 09:59:01;;;;;;;0.60;0.60;;;24.40;99.90;;;;;;5088745;28;20212;-81
2022/08/28 10:01:41;;;;;;;0.80;0.70;;;24.70;99.90;;;;;;5091239;28;20549;-81
2022/08/28 10:04:16;;;;;;;0.20;0.20;;;25.10;99.90;;;;;;5091840;28;20176;-81
2022/08/28 10:06:57;;;;;;;0.30;0.30;;;25.50;99.90;;;;;;5090940;28;20241;-81
2022/08/28 10:09:34;;;;;;;0.30;0.30;;;25.20;99.90;;;;;;5089700;28;20204;-81
2022/08/28 10:12:34;;;;;;;0.20;0.20;;;25.20;99.90;;;;;;5090458;28;20184;-82
2022/08/28 10:15:24;;;;;;;0.57;0.47;;;24.50;99.90;;;;;;5087748;28;20613;-81
2022/08/28 10:18:16;;;;;;;0.40;0.40;;;24.90;99.90;;;;;;5088968;28;20658;-81
2022/08/28 10:21:06;;;;;;;3.60;0.30;;;25.40;99.90;;;;;;5071188;28;20184;-81
2022/08/28 10:23:47;;;;;;;3.50;0.20;;;25.40;99.90;;;;;;5088502;28;20195;-82
2022/08/28 10:26:29;;;;;;;0.40;0.40;;;25.30;99.90;;;;;;5086765;28;20188;-81
2022/08/28 10:29:01;;;;;;;0.60;0.60;;;25.30;99.90;;;;;;5087875;28;20225;-81
2022/08/28 10:31:32;;;;;;;0.27;0.27;;;26.00;99.90;;;;;;5089038;28;20180;-82
2022/08/28 10:34:16;;;;;;;0.20;0.20;;;26.10;99.90;;;;;;5087076;28;20529;-81
2022/08/28 10:36:51;;;;;;;0.40;0.40;;;26.30;99.90;;;;;;5087140;28;20204;-81
2022/08/28 10:39:47;;;;;;;0.27;0.27;;;26.20;99.90;;;;;;5089110;28;20199;-82
2022/08/28 10:42:18;;;;;;;1.37;0.70;;;25.80;99.90;;;;;;5088892;28;20180;-81
2022/08/28 10:44:53;;;;;;;4.37;0.50;;;25.40;99.90;;;;;;5091559;28;20183;-82
2022/08/28 10:47:21;;;;;;;0.60;0.60;;;24.90;99.90;;;;;;5090416;28;20255;-82
2022/08/28 10:49:51;;;;;;;0.30;0.30;;;25.00;99.90;;;;;;5090233;28;20295;-81
2022/08/28 10:52:25;;;;;;;0.57;0.43;;;25.40;99.90;;;;;;5091941;28;20248;-82
2022/08/28 10:55:09;;;;;;;0.50;0.33;;;25.50;99.90;;;;;;5091555;28;20168;-81
2022/08/28 10:57:41;;;;;;;0.30;0.30;;;25.80;99.90;;;;;;5092622;28;20238;-81
2022/08/28 11:00:13;;;;;;;0.47;0.47;;;26.40;99.90;;;;;;5093660;28;20202;-81
2022/08/28 11:02:50;;;;;;;0.43;0.40;;;26.40;99.90;;;;;;5094121;28;20264;-82
2022/08/28 11:05:24;;;;;;;0.40;0.40;;;26.90;99.90;;;;;;5088573;28;20199;-82
2022/08/28 11:07:54;;;;;;;0.23;0.23;;;26.60;99.90;;;;;;5086635;28;20228;-81
2022/08/28 11:10:31;;;;;;;0.40;0.40;;;26.20;99.90;;;;;;5090229;28;20201;-86
2022/08/28 11:12:58;;;;;;;0.33;0.33;;;26.50;99.90;;;;;;5088500;28;20525;-81
2022/08/28 11:15:26;;;;;;;0.30;0.30;;;26.70;99.90;;;;;;5086232;28;20212;-81
2022/08/28 11:17:54;;;;;;;2.53;0.73;;;26.60;99.90;;;;;;5088992;28;20208;-81
2022/08/28 11:20:23;;;;;;;0.20;0.20;;;25.90;99.90;;;;;;5086822;28;20218;-81
2022/08/28 11:23:00;;;;;;;0.43;0.43;;;26.10;99.90;;;;;;5087742;28;20188;-81
2022/08/28 11:25:40;;;;;;;0.50;0.47;;;25.80;99.90;;;;;;5090800;28;20184;-81
2022/08/28 11:28:38;;;;;;;0.90;0.80;;;26.60;99.90;;;;;;5094798;28;20229;-81
2022/08/28 11:31:04;;;;;;;2.40;0.50;;;25.80;99.90;;;;;;5091638;28;20188;-81
2022/08/28 11:33:44;;;;;;;0.47;0.47;;;26.00;99.90;;;;;;5092626;28;20188;-81
2022/08/28 11:36:21;;;;;;;1.17;0.40;;;26.40;99.90;;;;;;5087436;28;20260;-81
2022/08/28 11:38:52;;;;;;;0.67;0.40;;;27.00;99.90;;;;;;5091996;28;20283;-81
2022/08/28 11:41:26;;;;;;;0.40;0.40;;;26.90;99.90;;;;;;5088499;28;20180;-81
2022/08/28 11:44:23;;;;;;;0.87;0.43;;;26.30;99.90;;;;;;5091817;28;20177;-81
2022/08/28 11:46:51;;;;;;;0.60;0.50;;;27.00;99.90;;;;;;5090375;28;20273;-81
2022/08/28 11:49:23;;;;;;;0.30;0.30;;;27.50;99.90;;;;;;5090637;28;20244;-81
2022/08/28 11:52:26;;;;;;;2.43;0.40;;;28.00;99.90;;;;;;5091192;28;20184;-81
2022/08/28 11:55:10;;;;;;;3.47;0.57;;;28.40;99.90;;;;;;5090508;28;20301;-81
2022/08/28 11:58:00;;;;;;;0.47;0.47;;;27.30;99.90;;;;;;5091586;28;20274;-81
2022/08/28 12:00:53;;;;;;;0.97;0.90;;;26.70;99.90;;;;;;5089737;28;20219;-81
2022/08/28 12:03:55;;;;;;;0.60;0.60;;;27.50;99.90;;;;;;5090407;28;20968;-81
2022/08/28 12:06:51;;;;;;;0.30;0.30;;;26.50;99.90;;;;;;5085587;28;20276;-81
2022/08/28 12:09:55;;;;;;;0.50;0.50;;;26.60;99.90;;;;;;5085521;28;20261;-80
2022/08/28 12:12:20;;;;;;;0.10;0.10;;;26.70;99.90;;;;;;5090763;28;20187;-81
2022/08/28 12:14:45;;;;;;;1.00;0.40;;;26.90;99.90;;;;;;5091589;28;20567;-81
2022/08/28 12:17:20;;;;;;;0.30;0.30;;;26.80;99.90;;;;;;5090158;28;20200;-81
2022/08/28 12:19:54;;;;;;;0.50;0.50;;;27.20;99.90;;;;;;5090919;28;20206;-81
2022/08/28 12:22:38;;;;;;;0.20;0.20;;;27.40;99.90;;;;;;5087481;28;20721;-81
2022/08/28 12:25:09;;;;;;;0.20;0.20;;;28.00;99.90;;;;;;5088723;28;20177;-81
2022/08/28 12:27:37;;;;;;;0.20;0.20;;;27.60;99.90;;;;;;5088682;28;20268;-81
2022/08/28 12:30:03;;;;;;;0.53;0.53;;;28.00;99.90;;;;;;5088166;28;20568;-81
2022/08/28 12:32:29;;;;;;;0.53;0.53;;;26.80;99.90;;;;;;5084762;28;20191;-81
2022/08/28 12:34:57;;;;;;;1.77;1.27;;;26.60;99.90;;;;;;5090990;28;20184;-81
2022/08/28 12:37:31;;;;;;;0.53;0.47;;;26.50;99.90;;;;;;5084753;28;20610;-81
2022/08/28 12:40:19;;;;;;;0.47;0.47;;;27.20;99.90;;;;;;5087122;28;20200;-81
2022/08/28 12:42:53;;;;;;;1.00;0.73;;;27.50;99.90;;;;;;5086886;28;20227;-81
2022/08/28 12:45:29;;;;;;;0.50;0.43;;;27.60;99.90;;;;;;5089589;28;20184;-81
2022/08/28 12:47:59;;;;;;;0.60;0.60;;;28.10;99.90;;;;;;5088518;28;20203;-81
2022/08/28 12:50:35;;;;;;;0.60;0.60;;;27.70;99.90;;;;;;5084511;28;20193;-82
2022/08/28 12:53:04;;;;;;;1.40;1.20;;;27.80;99.90;;;;;;5087567;28;20180;-81
2022/08/28 12:55:30;;;;;;;0.50;0.50;;;27.70;99.90;;;;;;5085796;28;20568;-81
2022/08/28 12:57:56;;;;;;;0.60;0.60;;;27.80;99.90;;;;;;5088973;28;20281;-82
2022/08/28 13:00:25;;;;;;;4.17;0.80;;;27.40;99.90;;;;;;5089434;28;20192;-81
2022/08/28 13:02:54;;;;;;;0.60;0.60;;;27.80;99.90;;;;;;5089478;28;20189;-81
2022/08/28 13:05:30;;;;;;;1.47;0.67;;;28.20;99.90;;;;;;5088310;28;20672;-81
2022/08/28 13:07:59;;;;;;;1.07;0.97;;;27.20;99.90;;;;;;5089881;28;20208;-81
2022/08/28 13:10:32;;;;;;;0.40;0.40;;;26.60;99.90;;;;;;5088868;28;20222;-81